createdAt,value
2019-04-26T00:04:10.333Z,72
2019-04-26T00:09:39.096Z,72
2019-04-26T00:15:07.150Z,73
2019-04-26T00:20:34.966Z,73
2019-04-26T00:31:33.042Z,73
2019-04-26T00:37:01.146Z,73
2019-04-26T00:42:28.862Z,73
2019-04-26T00:47:57.833Z,73
2019-04-26T00:53:26.590Z,73
2019-04-26T00:58:53.855Z,73
2019-04-26T01:04:22.994Z,73
2019-04-26T01:09:51.502Z,72
2019-04-26T01:15:19.931Z,72
2019-04-26T01:20:46.492Z,72
2019-04-26T01:31:44.474Z,71
2019-04-26T01:37:13.369Z,72
2019-04-26T01:42:42.352Z,72
2019-04-26T01:48:10.994Z,72
2019-04-26T01:53:38.272Z,72
2019-04-26T01:59:07.209Z,72
2019-04-26T02:04:36.382Z,72
2019-04-26T02:10:04.197Z,72
2019-04-26T02:15:33.462Z,73
2019-04-26T02:21:01.208Z,73
2019-04-26T02:26:30.390Z,73
2019-04-26T02:31:59.380Z,73
2019-04-26T02:37:28.303Z,73
2019-04-26T02:42:55.724Z,73
2019-04-26T02:48:23.742Z,74
2019-04-26T02:53:51.840Z,74
2019-04-26T02:59:20.740Z,74
2019-04-26T03:04:48.501Z,74
2019-04-26T03:10:16.578Z,74
2019-04-26T03:15:44.309Z,74
2019-04-26T03:21:13.294Z,74
2019-04-26T03:26:43.302Z,74
2019-04-26T03:32:16.078Z,74
2019-04-26T03:37:39.810Z,74
2019-04-26T03:43:06.277Z,75
2019-04-26T03:48:35.367Z,75
2019-04-26T03:54:02.596Z,75
2019-04-26T03:59:30.816Z,75
2019-04-26T04:04:59.464Z,75
2019-04-26T04:10:37.367Z,75
2019-04-26T04:15:58.783Z,75
2019-04-26T04:21:26.322Z,75
2019-04-26T04:26:54.201Z,76
2019-04-26T04:32:22.885Z,76
2019-04-26T04:38:03.821Z,76
2019-04-26T04:43:19.645Z,76
2019-04-26T04:48:48.986Z,76
2019-04-26T04:54:15.466Z,76
2019-04-26T04:59:44.024Z,76
2019-04-26T05:05:11.055Z,76
2019-04-26T05:10:39.007Z,76
2019-04-26T05:16:07.658Z,76
2019-04-26T05:21:36.559Z,76
2019-04-26T05:27:05.482Z,76
2019-04-26T05:32:34.310Z,76
2019-04-26T05:38:02.330Z,77
2019-04-26T05:43:30.215Z,77
2019-04-26T05:48:58.046Z,76
2019-04-26T05:54:26.005Z,77
2019-04-26T05:59:55.000Z,76
2019-04-26T06:05:22.705Z,76
2019-04-26T06:10:51.510Z,76
2019-04-26T06:21:47.649Z,76
2019-04-26T06:27:15.739Z,76
2019-04-26T06:32:55.846Z,76
2019-04-26T06:38:11.373Z,75
2019-04-26T06:43:40.536Z,74
2019-04-26T06:49:09.524Z,75
2019-04-26T06:54:37.517Z,74
2019-04-26T07:00:06.747Z,73
2019-04-26T07:05:34.893Z,73
2019-04-26T07:11:03.484Z,73
2019-04-26T07:16:32.070Z,73
2019-04-26T07:22:00.583Z,73
2019-04-26T07:27:27.957Z,73
2019-04-26T07:32:55.725Z,73
2019-04-26T07:38:24.943Z,74
2019-04-26T07:43:54.103Z,74
2019-04-26T07:49:21.753Z,75
2019-04-26T07:54:49.794Z,76
2019-04-26T08:05:47.649Z,78
2019-04-26T08:11:16.757Z,81
2019-04-26T08:16:45.759Z,84
2019-04-26T08:22:20.134Z,85
2019-04-26T08:27:41.548Z,86
2019-04-26T08:33:11.921Z,86
2019-04-26T08:38:39.110Z,87
2019-04-26T08:44:07.154Z,86
2019-04-26T08:49:35.026Z,85
2019-04-26T08:55:04.702Z,86
2019-04-26T09:00:31.572Z,83
2019-04-26T09:05:59.351Z,82
2019-04-26T09:11:33.295Z,81
2019-04-26T09:16:55.799Z,81
2019-04-26T09:22:26.399Z,80
2019-04-26T09:27:54.005Z,78
2019-04-26T09:33:22.115Z,77
2019-04-26T09:38:50.600Z,78
2019-04-26T09:44:19.586Z,79
2019-04-26T09:55:15.449Z,80
2019-04-26T10:00:48.411Z,82
2019-04-26T10:06:21.066Z,81
2019-04-26T10:11:43.498Z,81
2019-04-26T10:17:11.441Z,80
2019-04-26T10:22:38.671Z,80
2019-04-26T10:28:07.753Z,81
2019-04-26T10:39:05.811Z,79
2019-04-26T10:44:35.609Z,77
2019-04-26T10:50:04.027Z,79
2019-04-26T10:55:32.879Z,77
2019-04-26T11:01:01.426Z,76
2019-04-26T11:11:59.012Z,78
2019-04-26T11:17:28.098Z,79
2019-04-26T11:22:57.899Z,77
2019-04-26T11:28:24.897Z,79
2019-04-26T11:34:04.607Z,78
2019-04-26T11:39:22.103Z,80
2019-04-26T11:44:50.846Z,79
2019-04-26T11:50:18.740Z,80
2019-04-26T11:55:51.301Z,79
2019-04-26T12:01:14.597Z,78
2019-04-26T12:06:42.552Z,78
2019-04-26T12:12:12.989Z,77
2019-04-26T12:17:41.283Z,78
2019-04-26T12:23:08.434Z,76
2019-04-26T12:28:39.868Z,77
2019-04-26T12:34:05.877Z,77
2019-04-26T12:39:36.573Z,75
2019-04-26T12:45:03.389Z,76
2019-04-26T12:50:35.105Z,76
2019-04-26T13:01:28.430Z,78
2019-04-26T13:06:56.269Z,77
2019-04-26T13:12:25.940Z,78
2019-04-26T13:23:25.289Z,77
2019-04-26T13:28:52.301Z,75
2019-04-26T13:34:18.394Z,73
2019-04-26T13:39:46.447Z,74
2019-04-26T13:45:14.810Z,73
2019-04-26T13:50:42.688Z,71
2019-04-26T14:01:48.613Z,69
2019-04-26T14:07:10.323Z,68
2019-04-26T14:12:38.011Z,70
2019-04-26T14:18:07.382Z,71
2019-04-26T14:23:35.204Z,70
2019-04-26T14:29:04.359Z,70
2019-04-26T14:34:36.092Z,71
2019-04-26T14:40:16.496Z,73
2019-04-26T14:45:29.726Z,73
2019-04-26T14:51:07.378Z,73
2019-04-26T14:56:29.208Z,74
2019-04-26T15:01:54.799Z,72
2019-04-26T15:07:23.601Z,72
2019-04-26T15:12:56.668Z,72
2019-04-26T15:18:19.429Z,72
2019-04-26T15:23:48.383Z,72
2019-04-26T15:29:16.211Z,74
2019-04-26T15:34:44.389Z,73
2019-04-26T15:40:12.744Z,73
2019-04-26T15:45:40.277Z,73
2019-04-26T15:51:08.067Z,72
2019-04-26T15:56:35.932Z,72
2019-04-26T16:02:03.875Z,73
2019-04-26T16:07:34.327Z,73
2019-04-26T16:13:16.010Z,72
2019-04-26T16:18:37.073Z,72
2019-04-26T16:23:58.223Z,73
2019-04-26T16:29:26.475Z,72
2019-04-26T16:34:54.406Z,72
2019-04-26T16:40:23.913Z,72
2019-04-26T16:45:54.209Z,71
2019-04-26T16:51:19.249Z,71
2019-04-26T16:56:47.011Z,71
2019-04-26T17:02:15.940Z,71
2019-04-26T17:07:43.690Z,71
2019-04-26T17:13:11.186Z,71
2019-04-26T17:18:59.472Z,72
2019-04-26T17:24:09.497Z,72
2019-04-26T17:29:35.445Z,72
2019-04-26T17:35:07.301Z,72
2019-04-26T17:40:36.271Z,72
2019-04-26T17:46:01.104Z,72
2019-04-26T17:51:32.491Z,73
2019-04-26T17:56:56.471Z,74
2019-04-26T18:02:40.116Z,75
2019-04-26T18:07:58.302Z,75
2019-04-26T18:13:22.107Z,75
2019-04-26T18:18:54.239Z,75
2019-04-26T18:24:19.684Z,76
2019-04-26T18:29:48.920Z,76
2019-04-26T18:35:16.887Z,76
2019-04-26T18:40:59.793Z,77
2019-04-26T18:46:13.051Z,77
2019-04-26T18:57:13.983Z,77
2019-04-26T19:02:37.195Z,77
2019-04-26T19:08:05.193Z,77
2019-04-26T19:13:36.383Z,77
2019-04-26T19:19:02.737Z,77
2019-04-26T19:24:30.124Z,78
2019-04-26T19:29:57.811Z,78
2019-04-26T19:35:26.135Z,78
2019-04-26T19:40:54.173Z,79
2019-04-26T19:46:25.167Z,79
2019-04-26T19:51:56.575Z,79
2019-04-26T19:57:21.667Z,80
2019-04-26T20:02:49.986Z,80
2019-04-26T20:08:16.730Z,80
2019-04-26T20:13:50.797Z,80
2019-04-26T20:19:17.616Z,80
2019-04-26T20:24:43.274Z,80
2019-04-26T20:30:09.557Z,80
2019-04-26T20:41:06.890Z,81
2019-04-26T20:46:37.676Z,81
2019-04-26T20:52:04.237Z,82
2019-04-26T20:57:34.321Z,81
2019-04-26T21:03:01.150Z,81
2019-04-26T21:08:28.299Z,81
2019-04-26T21:14:01.734Z,81
2019-04-26T21:25:32.407Z,81
2019-04-26T21:30:22.903Z,81
2019-04-26T21:35:52.954Z,81
2019-04-26T21:41:18.688Z,82
2019-04-26T21:46:49.465Z,81
2019-04-26T21:52:13.978Z,82
2019-04-26T21:57:41.540Z,82
2019-04-26T22:03:12.495Z,82
2019-04-26T22:08:37.922Z,82
2019-04-26T22:14:06.676Z,82
2019-04-26T22:19:35.305Z,82
2019-04-26T22:25:03.770Z,82
2019-04-26T22:30:30.996Z,83
2019-04-26T22:36:06.120Z,84
2019-04-26T22:41:28.460Z,84
2019-04-26T22:46:58.735Z,84
2019-04-26T22:52:24.417Z,84
2019-04-26T22:57:53.001Z,84
2019-04-26T23:03:19.624Z,84
2019-04-26T23:08:47.459Z,85
2019-04-26T23:14:17.370Z,85
2019-04-26T23:19:43.590Z,85
2019-04-26T23:25:10.816Z,85
2019-04-26T23:30:39.049Z,85
2019-04-26T23:36:06.677Z,85
2019-04-26T23:41:37.509Z,85
2019-04-26T23:47:02.701Z,85
2019-04-26T23:52:29.693Z,85
2019-04-26T23:57:57.746Z,85
